Flight Track Log - Related Links

Times and Time Zones

All times are in EDT time to prevent confusion due to time zone crossing. See the UPS1122 flight status page for this flight to view local times or setup timezone preferences in your user account.

Time Position Orientation Groundspeed Altitude Reporting Facility
EDT Latitude Longitude Course Direction KTS MPH feet Rate Location/Type
Sat 04:43:17 AM 38.1690 -85.7250 189° South 167 192 600  Level FlightAware ADS-B
Sat 04:43:42 AM 38.1500 -85.7190 166° South 164 189 2,000 2,182 Climbing FlightAware ADS-B
Sat 04:44:12 AM 38.1240 -85.7140 171° South 206 237 2,600 2,000 Climbing FlightAware ADS-B
Sat 04:44:42 AM 38.0960 -85.7060 167° South 206 237 4,000 2,550 Climbing FlightAware ADS-B
Sat 04:44:52 AM 38.0900 -85.6990 137° Southeast 214 246 4,300 1,440 Climbing FlightAware ADS-B
Sat 04:45:07 AM 38.0830 -85.6800 115° Southeast 243 280 4,600 1,200 Climbing FlightAware ADS-B
Sat 04:45:12 AM 38.0820 -85.6740 102° East 249 287 4,700 2,600 Climbing FlightAware ADS-B
Sat 04:45:37 AM 38.0910 -85.6380 72° East 269 310 5,900 2,850 Climbing FlightAware ADS-B
Sat 04:45:52 AM 38.1070 -85.6210 40° Northeast 278 320 6,600 2,550 Climbing FlightAware ADS-B
Sat 04:46:17 AM 38.1310 -85.5970 38° Northeast 285 328 7,600 2,550 Climbing FlightAware ADS-B
Sat 04:46:32 AM 38.1490 -85.5780 40° Northeast 288 331 8,300 2,700 Climbing FlightAware ADS-B
Sat 04:46:57 AM 38.1730 -85.5500 43° Northeast 287 330 9,400 2,057 Climbing FlightAware ADS-B
Sat 04:47:42 AM 38.2080 -85.4850 56° Northeast 315 362 10,700 1,333 Climbing FlightAware ADS-B
Sat 04:48:27 AM 38.2470 -85.4090 57° Northeast 365 420 11,400 1,129 Climbing FlightAware ADS-B
Sat 04:49:07 AM 38.2870 -85.3310 57° Northeast 398 458 12,300 1,725 Climbing FlightAware ADS-B
Sat 04:49:47 AM 38.3270 -85.2540 56° Northeast 409 471 13,700 2,188 Climbing FlightAware ADS-B
Sat 04:50:32 AM 38.3780 -85.1570 56° Northeast 420 483 15,400 2,067 Climbing FlightAware ADS-B
Sat 04:51:17 AM 38.4240 -85.0690 56° Northeast 430 495 16,800 1,950 Climbing FlightAware ADS-B
Sat 04:51:52 AM 38.4660 -84.9890 56° Northeast 436 502 18,000 900 Climbing FlightAware ADS-B
Sat 04:52:37 AM 38.5120 -84.9040 55° Northeast 436 502 18,000  Level FlightAware ADS-B
Sat 04:53:17 AM 38.5510 -84.8320 55° Northeast 436 502 18,000  Level FlightAware ADS-B
Sat 04:53:57 AM 38.5910 -84.7610 54° Northeast 436 502 18,000  Level FlightAware ADS-B
Sat 04:54:37 AM 38.6300 -84.6890 55° Northeast 436 502 18,000  Level FlightAware ADS-B
Sat 04:55:17 AM 38.6690 -84.6170 55° Northeast 436 502 18,000 2,343 Level FlightAware ADS-B
Sat 04:59:52 AM 39.0530 -83.8390 57° Northeast 494 568 30,300 2,495 Climbing FlightAware ADS-B
Sat 05:00:32 AM 39.1030 -83.7400 57° Northeast 492 566 31,100 1,129 Climbing FlightAware ADS-B
Sat 05:01:17 AM 39.1580 -83.6290 57° Northeast 492 566 31,900 1,059 Climbing FlightAware ADS-B
Sat 05:01:57 AM 39.2080 -83.5290 57° Northeast 490 564 32,600 1,059 Climbing FlightAware ADS-B
Sat 05:02:42 AM 39.2630 -83.4170 58° Northeast 486 559 33,400 1,129 Climbing FlightAware ADS-B
Sat 05:03:22 AM 39.3120 -83.3170 58° Northeast 481 554 34,200 1,040 Climbing FlightAware ADS-B
Sat 05:03:57 AM 39.3520 -83.2350 58° Northeast 478 550 34,700 600 Climbing FlightAware ADS-B
Sat 05:04:42 AM 39.4040 -83.1290 58° Northeast 477 549 35,000 225 Climbing FlightAware ADS-B
Sat 05:05:17 AM 39.4460 -83.0430 58° Northeast 477 549 35,000  Level FlightAware ADS-B
Sat 05:06:07 AM 39.5070 -82.9170 58° Northeast 484 557 35,000  Level FlightAware ADS-B
Sat 05:06:52 AM 39.5610 -82.8070 57° Northeast 486 559 35,000  Level FlightAware ADS-B
Sat 05:07:32 AM 39.6090 -82.7080 58° Northeast 485 558 35,000  Level FlightAware ADS-B
Sat 05:08:17 AM 39.6640 -82.5940 58° Northeast 483 556 35,000  Level FlightAware ADS-B
Sat 05:08:57 AM 39.7120 -82.4940 58° Northeast 483 556 35,000  Level FlightAware ADS-B
Sat 05:09:42 AM 39.7660 -82.3830 58° Northeast 484 557 35,000  Level FlightAware ADS-B
Sat 05:10:22 AM 39.8130 -82.2840 58° Northeast 485 558 35,000  Level FlightAware ADS-B
Sat 05:11:02 AM 39.8600 -82.1850 58° Northeast 483 556 35,000  Level FlightAware ADS-B
Sat 05:11:47 AM 39.9140 -82.0700 58° Northeast 484 557 35,000  Level FlightAware ADS-B
Sat 05:12:27 AM 39.9620 -81.9690 58° Northeast 486 559 35,000  Level FlightAware ADS-B
Sat 05:13:07 AM 40.0080 -81.8690 59° Northeast 485 558 35,000  Level FlightAware ADS-B
Sat 05:13:52 AM 40.0510 -81.7510 65° Northeast 489 563 35,000  Level FlightAware ADS-B
Sat 05:14:32 AM 40.0800 -81.6380 71° East 490 564 35,000  Level FlightAware ADS-B
Sat 05:15:17 AM 40.1120 -81.5080 72° East 489 563 35,000  Level FlightAware ADS-B
Sat 05:15:57 AM 40.1390 -81.3990 72° East 489 563 35,000  Level FlightAware ADS-B
Sat 05:16:37 AM 40.1680 -81.2800 72° East 489 563 35,000  Level FlightAware ADS-B
Sat 05:17:22 AM 40.1980 -81.1550 73° East 490 564 35,000  Level FlightAware ADS-B
Sat 05:18:02 AM 40.2260 -81.0420 72° East 491 565 35,000  Level FlightAware ADS-B
Sat 05:18:47 AM 40.2580 -80.9090 72° East 494 568 35,000  Level FlightAware ADS-B
Sat 05:19:27 AM 40.2860 -80.7940 72° East 496 571 35,000  Level FlightAware ADS-B
Sat 05:20:07 AM 40.3140 -80.6770 73° East 498 573 35,000  Level FlightAware ADS-B
Sat 05:20:52 AM 40.3440 -80.5510 73° East 499 574 35,000  Level FlightAware ADS-B
Sat 05:21:27 AM 40.3690 -80.4450 73° East 500 575 35,000  Level FlightAware ADS-B
Sat 05:22:17 AM 40.4020 -80.3030 73° East 502 578 35,000  Level FlightAware ADS-B
Sat 05:22:57 AM 40.4300 -80.1810 73° East 502 578 35,000  Level FlightAware ADS-B
Sat 05:23:37 AM 40.4560 -80.0670 73° East 503 579 35,000  Level FlightAware ADS-B
Sat 05:24:22 AM 40.4870 -79.9330 73° East 503 579 35,000  Level FlightAware ADS-B
Sat 05:25:02 AM 40.5140 -79.8170 73° East 503 579 35,000  Level FlightAware ADS-B
Sat 05:25:42 AM 40.5410 -79.6980 73° East 500 575 35,000  Level FlightAware ADS-B
Sat 05:26:22 AM 40.5670 -79.5830 73° East 502 578 35,000  Level FlightAware ADS-B
Sat 05:27:07 AM 40.5980 -79.4460 73° East 504 580 35,000  Level FlightAware ADS-B
Sat 05:27:52 AM 40.6270 -79.3160 74° East 506 582 35,000  Level FlightAware ADS-B
Sat 05:28:32 AM 40.6520 -79.2030 74° East 509 586 35,000  Level FlightAware ADS-B
Sat 05:29:17 AM 40.6830 -79.0650 73° East 510 587 35,000  Level FlightAware ADS-B
Sat 05:29:57 AM 40.7090 -78.9470 74° East 508 585 35,000  Level FlightAware ADS-B
Sat 05:30:52 AM 40.7420 -78.7980 74° East 509 586 35,000  Level FlightAware ADS-B
Sat 05:31:32 AM 40.7670 -78.6780 75° East 510 587 35,000  Level FlightAware ADS-B
Sat 05:32:17 AM 40.7970 -78.5420 74° East 508 585 35,000  Level FlightAware ADS-B
Sat 05:32:57 AM 40.8220 -78.4250 74° East 508 585 35,000  Level FlightAware ADS-B
Sat 05:33:42 AM 40.8500 -78.2900 75° East 509 586 35,000  Level FlightAware ADS-B
Sat 05:34:22 AM 40.8760 -78.1680 74° East 509 586 35,000  Level FlightAware ADS-B
Sat 05:35:02 AM 40.9020 -78.0470 74° East 510 587 35,000  Level FlightAware ADS-B
Sat 05:35:47 AM 40.9300 -77.9110 75° East 512 589 35,000  Level FlightAware ADS-B
Sat 05:36:27 AM 40.9550 -77.7890 75° East 514 592 35,000  Level FlightAware ADS-B
Sat 05:37:12 AM 40.9830 -77.6540 75° East 514 592 35,000  Level FlightAware ADS-B
Sat 05:37:52 AM 41.0080 -77.5300 75° East 515 593 35,000  Level FlightAware ADS-B
Sat 05:38:36 AM 41.0415 -77.3664 75° East 517 595 35,000  Level FlightAware ADS-B
Sat 05:39:09 AM 41.0619 -77.2662 75° East 516 594 35,000  Level FlightAware ADS-B
Sat 05:39:25 AM 41.0721 -77.2175 74° East 515 593 35,000  Level FlightAware ADS-B
Sat 05:39:31 AM 41.0767 -77.1991 72° East 512 589 35,000  Level FlightAware ADS-B
Sat 05:39:56 AM 41.1014 -77.1288 65° Northeast 503 579 35,000  Level FlightAware ADS-B
Sat 05:40:03 AM 41.1100 -77.1103 58° Northeast 499 574 35,000  Level FlightAware ADS-B
Sat 05:40:20 AM 41.1333 -77.0686 53° Northeast 492 566 35,000  Level FlightAware ADS-B
Sat 05:40:35 AM 41.1558 -77.0366 47° Northeast 486 559 35,000  Level FlightAware ADS-B
Sat 05:41:05 AM 41.2041 -76.9717 45° Northeast 486 559 35,000  Level FlightAware ADS-B
Sat 05:41:36 AM 41.2521 -76.9075 45° Northeast 486 559 35,000  Level FlightAware ADS-B
Sat 05:42:06 AM 41.3007 -76.8427 45° Northeast 487 560 35,000  Level FlightAware ADS-B
Sat 05:42:36 AM 41.3489 -76.7784 45° Northeast 487 560 35,000  Level FlightAware ADS-B
Sat 05:43:06 AM 41.3969 -76.7141 45° Northeast 488 562 35,000  Level FlightAware ADS-B
Sat 05:43:37 AM 41.4460 -76.6479 45° Northeast 488 562 35,000  Level FlightAware ADS-B
Sat 05:44:07 AM 41.4939 -76.5835 45° Northeast 486 559 35,000  Level FlightAware ADS-B
Sat 05:44:38 AM 41.5419 -76.5188 45° Northeast 486 559 35,000  Level FlightAware ADS-B
Sat 05:45:08 AM 41.5899 -76.4540 45° Northeast 487 560 35,000 -590 Level FlightAware ADS-B
Sat 05:45:39 AM 41.6387 -76.3879 45° Northeast 490 564 34,400 -1,279 Descending FlightAware ADS-B
Sat 05:46:09 AM 41.6875 -76.3218 45° Northeast 494 568 33,700 -1,200 Descending FlightAware ADS-B
Sat 05:46:39 AM 41.7358 -76.2560 45° Northeast 495 570 33,200 -700 Descending FlightAware ADS-B
Sat 05:47:09 AM 41.7842 -76.1899 46° Northeast 495 570 33,000 -197 Descending FlightAware ADS-B
Sat 05:47:40 AM 41.8331 -76.1229 46° Northeast 496 571 33,000  Level FlightAware ADS-B
Sat 05:48:14 AM 41.8884 -76.0464 46° Northeast 494 568 33,000  Level FlightAware ADS-B
Sat 05:48:44 AM 41.9364 -75.9799 46° Northeast 493 567 33,000  Level FlightAware ADS-B
Sat 05:49:17 AM 41.9886 -75.9074 46° Northeast 493 567 33,000  Level FlightAware ADS-B
Sat 05:50:12 AM 42.0520 -75.8190 46° Northeast 493 567 33,000  Level FlightAware ADS-B
Sat 05:50:57 AM 42.1280 -75.7140 46° Northeast 493 567 33,000  Level FlightAware ADS-B
Sat 05:51:42 AM 42.2150 -75.5910 46° Northeast 494 568 33,000 -71 Level FlightAware ADS-B
Sat 05:52:22 AM 42.2770 -75.5000 47° Northeast 503 579 32,900 -565 Descending FlightAware ADS-B
Sat 05:53:07 AM 42.3290 -75.3730 61° Northeast 526 605 32,200 -1,275 Descending FlightAware ADS-B
Sat 05:53:42 AM 42.3560 -75.2560 73° East 531 611 31,200 -2,175 Descending FlightAware ADS-B
Sat 05:54:27 AM 42.3850 -75.1180 74° East 524 603 29,300 -1,333 Descending FlightAware ADS-B
Sat 05:55:12 AM 42.4110 -74.9930 74° East 523 602 29,200 -71 Descending FlightAware ADS-B
Sat 05:55:52 AM 42.4340 -74.8860 74° East 523 602 29,200  Level FlightAware ADS-B
Sat 05:56:32 AM 42.4560 -74.7780 75° East 523 602 29,200  Level FlightAware ADS-B
Sat 05:57:12 AM 42.4790 -74.6710 74° East 523 602 29,200  Level FlightAware ADS-B
Sat 05:57:52 AM 42.5020 -74.5640 74° East 523 602 29,200 -6,075 Level FlightAware ADS-B
Sat 05:58:32 AM 42.4856 -74.4025 74° East 481 554 21,100 -5,640 Descending Boston Center
Sat 05:59:32 AM 42.4864 -74.2308 90° East 469 540 19,800 -1,300 Descending Boston Center
Sat 06:00:32 AM 42.4869 -74.0589 90° East 464 534 18,500 -900 Descending Boston Center
Sat 06:01:32 AM 42.4872 -73.8817 90° East 434 499 18,000 -250 Descending Boston Center
Sat 06:02:32 AM 42.4911 -73.7325 88° East 434 499 18,000 -1,400 Level Boston Center
Sat 06:03:32 AM 42.4928 -73.5636 89° East 429 494 15,200 -2,100 Descending Boston Center
Sat 06:04:32 AM 42.4733 -73.4253 101° East 413 475 13,800 -1,440 Descending Boston Center
Sat 06:04:47 AM 42.4444 -73.3797 131° Southeast 415 478 13,400 -1,400 Descending Boston Center
Sat 06:05:32 AM 42.3889 -73.3058 135° Southeast 383 441 12,400 -1,433 Descending Boston Center
Sat 06:05:54 AM 42.3556 -73.2772 148° Southeast 390 449 11,800 -1,400 Descending Boston Center
Sat 06:06:32 AM 42.3039 -73.2344 149° Southeast 357 411 11,000 -1,444 Descending Boston Center
Sat 06:06:48 AM 42.2811 -73.2231 160° South 331 381 10,500 -1,900 Descending Boston Center
Sat 06:07:32 AM 42.2375 -73.1858 148° Southeast 327 376 9,100 -2,066 Descending Boston Center
Sat 06:07:49 AM 42.2064 -73.1689 158° South 302 348 8,400 -2,000 Descending Boston Center
Sat 06:08:32 AM 42.1628 -73.1319 148° Southeast 293 337 7,100 -1,800 Descending Boston Center
Sat 06:08:49 AM 42.1419 -73.1206 158° South 280 322 6,600 -1,600 Descending Boston Center
Sat 06:09:32 AM 42.0964 -73.0808 147° Southeast 271 312 5,500 -1,279 Descending Boston Center
Sat 06:09:50 AM 42.0778 -73.0722 161° South 266 306 5,300 -1,100 Descending Boston Center
Sat 06:10:32 AM 42.0342 -73.0383 150° Southeast 261 300 4,400 -1,279 Descending Boston Center
Sat 06:10:51 AM 42.0133 -73.0242 153° Southeast 264 304 4,000 -400 Descending Boston Center
Sat 06:11:32 AM 41.9758 -72.9958 151° Southeast 261 300 4,000  Level Boston Center
Sat 06:11:51 AM 41.9469 -72.9761 153° Southeast 259 298 4,000 -200 Level Boston Center
Sat 06:12:32 AM 41.9094 -72.9478 151° Southeast 256 295 3,800 -393 Descending Boston Center
Sat 06:12:52 AM 41.8908 -72.9364 156° South 228 262 3,600 -500 Descending Boston Center
Sat 06:13:32 AM 41.8597 -72.9111 149° Southeast 235 270 3,300 -500 Descending Boston Center
Sat 06:13:52 AM 41.8492 -72.8944 130° Southeast 179 206 3,100 -500 Descending Boston Center
Sat 06:14:32 AM 41.8264 -72.8608 132° Southeast 203 234 2,800 -393 Descending Boston Center
Sat 06:14:53 AM 41.8286 -72.8414 81° East 168 193 2,700 -400 Descending Boston Center
Sat 06:15:32 AM 41.8475 -72.8081 53° Northeast 128 147 2,400 -600 Descending Boston Center
Sat 06:15:53 AM 41.8581 -72.7942 44° Northeast 166 191 2,100 -800 Descending Boston Center
Sat 06:16:32 AM 41.8811 -72.7664 42° Northeast 128 147 1,600 -806 Descending Boston Center
Sat 06:17:00 AM 41.8936 -72.7525 40° Northeast 142 163 1,200 -700 Descending Boston Center
Sat 06:17:32 AM 41.9061 -72.7331 49° Northeast 135 155 900 -689 Descending Boston Center
Sat 06:18:01 AM 41.9186 -72.7192 40° Northeast 131 151 500 -828 Descending Boston Center
Sat 06:20:00 AM 41.9333 -72.6833 56° Northeast  Level FlightAware Approximate
Sat 06:27:00 AM 41.9392 -72.6834 56° Northeast  Level Estimated
Sat 06:28:00 AM 41.9333 -72.6833 56° Northeast  Level FlightAware Approximate

Login

Don't have an account? Register now (free) for customized features, flight alerts, and more!